sensor_id;sensor_type;location;lat;lon;timestamp;P1;durP1;ratioP1;P2;durP2;ratioP2
77148;SDS011;66122;47.130;16.844;2024-03-22T00:05:51;0.30;;;0.10;;
77148;SDS011;66122;47.130;16.844;2024-03-22T00:15:53;0.30;;;0.20;;
77148;SDS011;66122;47.130;16.844;2024-03-22T00:25:54;0.37;;;0.23;;
77148;SDS011;66122;47.130;16.844;2024-03-22T00:35:56;0.40;;;0.30;;
77148;SDS011;66122;47.130;16.844;2024-03-22T00:45:57;0.30;;;0.20;;
77148;SDS011;66122;47.130;16.844;2024-03-22T00:55:59;0.30;;;0.10;;
77148;SDS011;66122;47.130;16.844;2024-03-22T01:06:01;0.30;;;0.20;;
77148;SDS011;66122;47.130;16.844;2024-03-22T01:16:03;0.50;;;0.40;;
77148;SDS011;66122;47.130;16.844;2024-03-22T01:26:05;0.37;;;0.20;;
77148;SDS011;66122;47.130;16.844;2024-03-22T01:36:06;0.50;;;0.33;;
77148;SDS011;66122;47.130;16.844;2024-03-22T01:46:08;0.30;;;0.20;;
77148;SDS011;66122;47.130;16.844;2024-03-22T01:56:10;0.50;;;0.40;;
77148;SDS011;66122;47.130;16.844;2024-03-22T02:06:12;0.30;;;0.20;;
77148;SDS011;66122;47.130;16.844;2024-03-22T02:16:13;0.30;;;0.20;;
77148;SDS011;66122;47.130;16.844;2024-03-22T02:26:16;0.30;;;0.20;;
77148;SDS011;66122;47.130;16.844;2024-03-22T02:36:17;0.40;;;0.30;;
77148;SDS011;66122;47.130;16.844;2024-03-22T02:46:19;0.40;;;0.30;;
77148;SDS011;66122;47.130;16.844;2024-03-22T02:56:20;0.50;;;0.40;;
77148;SDS011;66122;47.130;16.844;2024-03-22T03:06:22;0.40;;;0.30;;
77148;SDS011;66122;47.130;16.844;2024-03-22T03:16:26;0.60;;;0.40;;
77148;SDS011;66122;47.130;16.844;2024-03-22T03:26:28;0.30;;;0.20;;
77148;SDS011;66122;47.130;16.844;2024-03-22T03:36:30;0.30;;;0.20;;
77148;SDS011;66122;47.130;16.844;2024-03-22T03:46:31;0.30;;;0.20;;
77148;SDS011;66122;47.130;16.844;2024-03-22T03:56:33;0.40;;;0.30;;
77148;SDS011;66122;47.130;16.844;2024-03-22T04:06:34;0.40;;;0.30;;
77148;SDS011;66122;47.130;16.844;2024-03-22T04:16:36;0.30;;;0.20;;
77148;SDS011;66122;47.130;16.844;2024-03-22T04:26:43;0.32;;;0.20;;
77148;SDS011;66122;47.130;16.844;2024-03-22T04:36:44;0.50;;;0.40;;
77148;SDS011;66122;47.130;16.844;2024-03-22T04:46:46;0.40;;;0.20;;
77148;SDS011;66122;47.130;16.844;2024-03-22T04:56:47;0.40;;;0.27;;
77148;SDS011;66122;47.130;16.844;2024-03-22T05:06:49;0.30;;;0.20;;
77148;SDS011;66122;47.130;16.844;2024-03-22T05:16:50;0.40;;;0.20;;
77148;SDS011;66122;47.130;16.844;2024-03-22T05:26:53;0.50;;;0.33;;
77148;SDS011;66122;47.130;16.844;2024-03-22T05:36:55;0.40;;;0.30;;
77148;SDS011;66122;47.130;16.844;2024-03-22T05:46:56;0.33;;;0.20;;
77148;SDS011;66122;47.130;16.844;2024-03-22T05:56:58;0.50;;;0.40;;
77148;SDS011;66122;47.130;16.844;2024-03-22T06:07:00;0.38;;;0.25;;
77148;SDS011;66122;47.130;16.844;2024-03-22T06:17:04;0.50;;;0.30;;
77148;SDS011;66122;47.130;16.844;2024-03-22T06:27:06;0.30;;;0.20;;
77148;SDS011;66122;47.130;16.844;2024-03-22T06:37:08;0.70;;;0.67;;
77148;SDS011;66122;47.130;16.844;2024-03-22T06:47:10;0.50;;;0.40;;
77148;SDS011;66122;47.130;16.844;2024-03-22T06:57:11;0.33;;;0.20;;
77148;SDS011;66122;47.130;16.844;2024-03-22T07:07:13;0.40;;;0.20;;
77148;SDS011;66122;47.130;16.844;2024-03-22T07:17:15;0.50;;;0.35;;
77148;SDS011;66122;47.130;16.844;2024-03-22T07:27:16;0.30;;;0.20;;
77148;SDS011;66122;47.130;16.844;2024-03-22T07:37:18;0.60;;;0.50;;
77148;SDS011;66122;47.130;16.844;2024-03-22T07:47:20;0.40;;;0.30;;
77148;SDS011;66122;47.130;16.844;2024-03-22T07:57:21;0.60;;;0.50;;
77148;SDS011;66122;47.130;16.844;2024-03-22T08:07:24;0.53;;;0.40;;
77148;SDS011;66122;47.130;16.844;2024-03-22T08:17:26;0.50;;;0.30;;
77148;SDS011;66122;47.130;16.844;2024-03-22T08:27:27;0.50;;;0.30;;
77148;SDS011;66122;47.130;16.844;2024-03-22T08:37:29;0.70;;;0.60;;
77148;SDS011;66122;47.130;16.844;2024-03-22T08:47:31;0.70;;;0.60;;
77148;SDS011;66122;47.130;16.844;2024-03-22T08:57:34;1.20;;;1.10;;
77148;SDS011;66122;47.130;16.844;2024-03-22T09:07:36;0.70;;;0.50;;
77148;SDS011;66122;47.130;16.844;2024-03-22T09:17:37;1.10;;;1.00;;
77148;SDS011;66122;47.130;16.844;2024-03-22T09:27:57;0.93;;;0.85;;
77148;SDS011;66122;47.130;16.844;2024-03-22T09:37:59;0.90;;;0.80;;
77148;SDS011;66122;47.130;16.844;2024-03-22T09:48:01;0.90;;;0.80;;
77148;SDS011;66122;47.130;16.844;2024-03-22T09:58:22;0.80;;;0.70;;
77148;SDS011;66122;47.130;16.844;2024-03-22T10:08:24;0.80;;;0.70;;
77148;SDS011;66122;47.130;16.844;2024-03-22T10:18:26;1.13;;;1.03;;
77148;SDS011;66122;47.130;16.844;2024-03-22T10:28:46;1.60;;;1.50;;
77148;SDS011;66122;47.130;16.844;2024-03-22T10:38:49;0.80;;;0.60;;
77148;SDS011;66122;47.130;16.844;2024-03-22T10:49:12;0.80;;;0.67;;
77148;SDS011;66122;47.130;16.844;2024-03-22T10:59:40;0.80;;;0.60;;
77148;SDS011;66122;47.130;16.844;2024-03-22T11:09:51;1.02;;;0.93;;
77148;SDS011;66122;47.130;16.844;2024-03-22T11:19:53;1.17;;;1.07;;
77148;SDS011;66122;47.130;16.844;2024-03-22T11:30:02;1.00;;;0.90;;
77148;SDS011;66122;47.130;16.844;2024-03-22T11:40:05;0.80;;;0.60;;
77148;SDS011;66122;47.130;16.844;2024-03-22T11:50:11;1.17;;;1.08;;
77148;SDS011;66122;47.130;16.844;2024-03-22T12:00:14;1.30;;;1.20;;
77148;SDS011;66122;47.130;16.844;2024-03-22T12:10:19;0.70;;;0.50;;
77148;SDS011;66122;47.130;16.844;2024-03-22T12:20:20;1.30;;;1.20;;
77148;SDS011;66122;47.130;16.844;2024-03-22T12:30:23;1.00;;;0.90;;
77148;SDS011;66122;47.130;16.844;2024-03-22T12:40:26;1.03;;;0.93;;
77148;SDS011;66122;47.130;16.844;2024-03-22T12:50:28;1.05;;;0.95;;
77148;SDS011;66122;47.130;16.844;2024-03-22T13:00:31;0.70;;;0.50;;
77148;SDS011;66122;47.130;16.844;2024-03-22T13:10:35;0.80;;;0.73;;
77148;SDS011;66122;47.130;16.844;2024-03-22T13:20:37;1.03;;;0.93;;
77148;SDS011;66122;47.130;16.844;2024-03-22T13:30:39;0.70;;;0.50;;
77148;SDS011;66122;47.130;16.844;2024-03-22T13:40:41;0.70;;;0.50;;
77148;SDS011;66122;47.130;16.844;2024-03-22T13:50:43;1.10;;;1.00;;
77148;SDS011;66122;47.130;16.844;2024-03-22T14:00:44;0.88;;;0.80;;
77148;SDS011;66122;47.130;16.844;2024-03-22T14:10:46;0.80;;;0.63;;
77148;SDS011;66122;47.130;16.844;2024-03-22T14:20:49;1.00;;;0.90;;
77148;SDS011;66122;47.130;16.844;2024-03-22T14:30:51;1.27;;;1.17;;
77148;SDS011;66122;47.130;16.844;2024-03-22T14:40:54;0.80;;;0.73;;
77148;SDS011;66122;47.130;16.844;2024-03-22T14:50:56;0.80;;;0.70;;
77148;SDS011;66122;47.130;16.844;2024-03-22T15:00:59;1.23;;;1.13;;
77148;SDS011;66122;47.130;16.844;2024-03-22T15:11:03;0.98;;;0.88;;
77148;SDS011;66122;47.130;16.844;2024-03-22T15:21:05;0.97;;;0.87;;
77148;SDS011;66122;47.130;16.844;2024-03-22T15:31:07;1.17;;;1.07;;
77148;SDS011;66122;47.130;16.844;2024-03-22T15:41:10;1.08;;;0.98;;
77148;SDS011;66122;47.130;16.844;2024-03-22T15:51:14;0.60;;;0.40;;
77148;SDS011;66122;47.130;16.844;2024-03-22T16:01:15;0.90;;;0.87;;
77148;SDS011;66122;47.130;16.844;2024-03-22T16:11:17;0.70;;;0.70;;
77148;SDS011;66122;47.130;16.844;2024-03-22T16:21:21;0.53;;;0.40;;
77148;SDS011;66122;47.130;16.844;2024-03-22T16:31:23;0.70;;;0.60;;
77148;SDS011;66122;47.130;16.844;2024-03-22T16:41:25;1.13;;;1.03;;
77148;SDS011;66122;47.130;16.844;2024-03-22T16:51:27;0.60;;;0.50;;
77148;SDS011;66122;47.130;16.844;2024-03-22T17:01:29;0.70;;;0.60;;
77148;SDS011;66122;47.130;16.844;2024-03-22T17:11:31;0.50;;;0.30;;
77148;SDS011;66122;47.130;16.844;2024-03-22T17:21:33;0.55;;;0.43;;
77148;SDS011;66122;47.130;16.844;2024-03-22T17:31:36;0.50;;;0.40;;
77148;SDS011;66122;47.130;16.844;2024-03-22T17:41:38;0.70;;;0.67;;
77148;SDS011;66122;47.130;16.844;2024-03-22T17:51:40;0.40;;;0.20;;
77148;SDS011;66122;47.130;16.844;2024-03-22T18:01:42;0.50;;;0.37;;
77148;SDS011;66122;47.130;16.844;2024-03-22T18:11:44;0.43;;;0.30;;
77148;SDS011;66122;47.130;16.844;2024-03-22T18:21:45;0.40;;;0.23;;
77148;SDS011;66122;47.130;16.844;2024-03-22T18:31:48;0.40;;;0.20;;
77148;SDS011;66122;47.130;16.844;2024-03-22T18:41:53;0.50;;;0.40;;
77148;SDS011;66122;47.130;16.844;2024-03-22T18:51:55;0.57;;;0.43;;
77148;SDS011;66122;47.130;16.844;2024-03-22T19:01:57;0.50;;;0.40;;
77148;SDS011;66122;47.130;16.844;2024-03-22T19:11:59;0.43;;;0.30;;
77148;SDS011;66122;47.130;16.844;2024-03-22T19:22:00;0.50;;;0.40;;
77148;SDS011;66122;47.130;16.844;2024-03-22T19:32:02;0.50;;;0.40;;
77148;SDS011;66122;47.130;16.844;2024-03-22T19:42:04;0.50;;;0.30;;
77148;SDS011;66122;47.130;16.844;2024-03-22T19:52:07;0.40;;;0.23;;
77148;SDS011;66122;47.130;16.844;2024-03-22T20:02:09;0.40;;;0.30;;
77148;SDS011;66122;47.130;16.844;2024-03-22T20:12:11;0.30;;;0.20;;
77148;SDS011;66122;47.130;16.844;2024-03-22T20:22:16;0.37;;;0.20;;
77148;SDS011;66122;47.130;16.844;2024-03-22T20:32:21;0.30;;;0.20;;
